Terminal Aerodrome Forecast
Issued by NWS Cleveland, OH

Home | Current Version | Previous Version | Graphics & Text | Print | Product List | Glossary On
Versions: 1 2 3 4 5 6 7 8 9 10 11 12 13 14 15 16 17 18 19 20 21 22 23 24 25 26 27
000
FTUS41 KCLE 171300 AAA
TAFCAK
TAF AMD
KCAK 171327Z 1713/1812 20012G18KT P6SM BKN018 OVC030
      TEMPO 1713/1716 SCT018 BKN030
     FM171600 21014G20KT P6SM BKN030
     FM171900 22014G20KT P6SM BKN050
     FM180400 26012KT P6SM VCSH BKN025 OVC050=

USA.gov is the U.S. government's official web portal to all federal, state and local government web resources and services.